Time;durP1;ratioP1;P1;durP2;ratioP2;P2;SDS_P1;SDS_P2;PMS_P1;PMS_P2;Temp;Humidity;BMP_temperature;BMP_pressure;BME280_temperature;BME280_humidity;BME280_pressure;Samples;Min_cycle;Max_cycle;Signal;HPM_P1;HPM_P2
2021/12/29 00:00:17;;;;;;;1.33;1.23;;;7.20;99.90;;;;;;5043746;28;20899;-71
2021/12/29 00:02:46;;;;;;;1.73;1.27;;;7.20;99.90;;;;;;5043569;28;20295;-72
2021/12/29 00:05:17;;;;;;;1.35;1.25;;;7.20;99.90;;;;;;5042909;28;20216;-71
2021/12/29 00:07:54;;;;;;;2.17;1.42;;;7.20;99.90;;;;;;5049145;28;20277;-71
2021/12/29 00:10:23;;;;;;;1.38;1.27;;;7.20;99.90;;;;;;5049030;28;20222;-72
2021/12/29 00:13:00;;;;;;;1.90;1.52;;;7.20;99.90;;;;;;5049116;28;20193;-72
2021/12/29 00:15:36;;;;;;;1.65;1.55;;;7.20;99.90;;;;;;5054634;28;20224;-72
2021/12/29 00:18:14;;;;;;;1.85;1.20;;;7.20;99.90;;;;;;5065330;28;20212;-71
2021/12/29 00:20:45;;;;;;;1.90;1.67;;;7.20;99.90;;;;;;5044764;28;20239;-70
2021/12/29 00:23:22;;;;;;;1.70;1.55;;;7.20;99.90;;;;;;5050514;28;20196;-71
2021/12/29 00:25:52;;;;;;;2.40;1.33;;;7.20;99.90;;;;;;5037760;28;20307;-71
2021/12/29 00:28:21;;;;;;;1.25;1.15;;;7.20;99.90;;;;;;5051852;28;20195;-71
2021/12/29 00:30:52;;;;;;;1.60;1.50;;;7.20;99.90;;;;;;5050076;28;20219;-72
2021/12/29 00:33:48;;;;;;;1.92;1.75;;;7.20;99.90;;;;;;5057444;28;20304;-72
2021/12/29 00:36:40;;;;;;;1.33;1.23;;;7.20;99.90;;;;;;5051100;28;20220;-72
2021/12/29 00:39:53;;;;;;;1.85;1.75;;;7.20;99.90;;;;;;5039184;28;20192;-71
2021/12/29 00:42:53;;;;;;;1.33;1.23;;;7.20;99.90;;;;;;5027173;28;20243;-71
2021/12/29 00:45:57;;;;;;;1.40;1.30;;;7.20;99.90;;;;;;5065136;28;20232;-71
2021/12/29 00:48:36;;;;;;;1.40;1.23;;;7.20;99.90;;;;;;5066767;28;20199;-71
2021/12/29 00:51:16;;;;;;;1.35;1.25;;;7.20;99.90;;;;;;5052001;28;20216;-72
2021/12/29 00:54:02;;;;;;;1.85;1.60;;;7.20;99.90;;;;;;5050695;28;20259;-72
2021/12/29 00:56:31;;;;;;;2.25;1.38;;;7.20;99.90;;;;;;5075275;28;20468;-71
2021/12/29 00:59:01;;;;;;;2.05;1.60;;;7.20;99.90;;;;;;5062731;28;20210;-72
2021/12/29 01:01:35;;;;;;;1.70;1.50;;;7.20;99.90;;;;;;5046914;28;20218;-72
2021/12/29 01:04:08;;;;;;;1.70;1.60;;;7.20;99.90;;;;;;5048393;28;20302;-71
2021/12/29 01:06:37;;;;;;;2.35;2.00;;;7.20;99.90;;;;;;5048530;28;20300;-72
2021/12/29 01:12:03;;;;;;;1.42;1.10;;;7.20;99.90;;;;;;5037287;28;20220;-72
2021/12/29 01:14:51;;;;;;;1.90;1.48;;;7.20;99.90;;;;;;5062617;28;20212;-71
2021/12/29 01:17:26;;;;;;;2.50;1.40;;;7.20;99.90;;;;;;5066821;28;20212;-72
2021/12/29 01:20:00;;;;;;;2.28;1.48;;;7.20;99.90;;;;;;5076650;28;20315;-71
2021/12/29 01:22:36;;;;;;;1.48;1.38;;;7.20;99.90;;;;;;5063666;28;20189;-71
2021/12/29 01:25:08;;;;;;;1.63;1.38;;;7.20;99.90;;;;;;5065366;28;20209;-71
2021/12/29 01:27:47;;;;;;;2.38;1.50;;;7.20;99.90;;;;;;5060765;28;20620;-70
2021/12/29 01:30:19;;;;;;;1.60;1.48;;;7.20;99.90;;;;;;5060221;28;20309;-70
2021/12/29 01:32:57;;;;;;;2.97;2.50;;;7.20;99.90;;;;;;5074041;28;20192;-71
2021/12/29 01:35:34;;;;;;;2.05;1.92;;;7.20;99.90;;;;;;5070260;28;20221;-70
2021/12/29 01:38:04;;;;;;;1.45;1.35;;;7.20;99.90;;;;;;5045639;28;20717;-71
2021/12/29 01:40:35;;;;;;;3.85;1.88;;;7.30;99.90;;;;;;5040908;28;20282;-71
2021/12/29 01:43:11;;;;;;;1.58;1.48;;;7.20;99.90;;;;;;5062350;28;20182;-71
2021/12/29 01:45:45;;;;;;;2.08;1.85;;;7.20;99.90;;;;;;5046335;28;20253;-72
2021/12/29 01:48:17;;;;;;;2.67;1.60;;;7.20;99.90;;;;;;5064152;28;20187;-72
2021/12/29 01:51:03;;;;;;;1.73;1.50;;;7.30;99.90;;;;;;5054363;28;20232;-72
2021/12/29 01:53:33;;;;;;;1.83;1.73;;;7.20;99.90;;;;;;5070590;28;20216;-72
2021/12/29 01:56:18;;;;;;;2.13;1.77;;;7.20;99.90;;;;;;5064189;28;20567;-71
2021/12/29 01:59:00;;;;;;;1.55;1.42;;;7.20;99.90;;;;;;5053480;28;20196;-72
2021/12/29 02:01:34;;;;;;;1.70;1.60;;;7.20;99.90;;;;;;5067705;28;20231;-71
2021/12/29 02:04:07;;;;;;;1.80;1.50;;;7.20;99.90;;;;;;5046914;28;20212;-72
2021/12/29 02:06:40;;;;;;;2.70;1.52;;;7.20;99.90;;;;;;5049301;28;20228;-72
2021/12/29 02:09:12;;;;;;;2.00;1.48;;;7.20;99.90;;;;;;5079732;28;20202;-71
2021/12/29 02:11:47;;;;;;;2.88;2.17;;;7.30;99.90;;;;;;5067444;28;20224;-71
2021/12/29 02:14:42;;;;;;;2.45;2.15;;;7.20;99.90;;;;;;5077299;28;20236;-72
2021/12/29 02:17:14;;;;;;;2.10;1.80;;;7.20;99.90;;;;;;5062956;28;20694;-73
2021/12/29 02:19:46;;;;;;;2.60;2.10;;;7.20;99.90;;;;;;5065724;28;20208;-72
2021/12/29 02:22:31;;;;;;;2.13;1.75;;;7.30;99.90;;;;;;5048833;28;20213;-71
2021/12/29 02:25:34;;;;;;;1.80;1.70;;;7.30;99.90;;;;;;5054502;28;20212;-71
2021/12/29 02:28:06;;;;;;;2.03;1.83;;;7.20;99.90;;;;;;5065990;28;20304;-71
2021/12/29 02:30:41;;;;;;;2.28;2.08;;;7.30;99.90;;;;;;5061097;28;20216;-72
2021/12/29 02:33:13;;;;;;;1.70;1.60;;;7.30;99.90;;;;;;5066549;28;20720;-72
2021/12/29 02:35:45;;;;;;;2.10;1.95;;;7.30;99.90;;;;;;5065334;28;20227;-71
2021/12/29 02:41:22;;;;;;;2.13;1.90;;;7.30;99.90;;;;;;5066687;28;20328;-71
2021/12/29 02:43:59;;;;;;;2.25;2.05;;;7.30;99.90;;;;;;5055944;28;20211;-71
2021/12/29 02:46:35;;;;;;;2.90;2.60;;;7.30;99.90;;;;;;5060625;28;20216;-71
2021/12/29 02:49:07;;;;;;;2.45;1.77;;;7.30;99.90;;;;;;5066149;28;20301;-71
2021/12/29 02:51:41;;;;;;;2.10;1.90;;;7.30;99.90;;;;;;5045164;28;20218;-72
2021/12/29 02:54:24;;;;;;;;;;;;;;;;;;;;;
2021/12/29 02:56:55;;;;;;;2.35;2.15;;;7.30;99.90;;;;;;5060111;28;20218;-71
2021/12/29 02:59:30;;;;;;;2.15;1.95;;;7.30;99.90;;;;;;5058246;28;20227;-72
2021/12/29 03:02:03;;;;;;;2.58;1.73;;;7.30;99.90;;;;;;5034305;28;20799;-72
2021/12/29 03:04:37;;;;;;;2.10;1.90;;;7.30;99.90;;;;;;5057164;28;20208;-71
2021/12/29 03:07:15;;;;;;;3.08;2.08;;;7.30;99.90;;;;;;5034931;28;20223;-71
2021/12/29 03:10:00;;;;;;;2.13;1.92;;;7.30;99.90;;;;;;5057349;28;20205;-71
2021/12/29 03:12:35;;;;;;;2.65;2.10;;;7.30;99.90;;;;;;5049937;28;20213;-71
2021/12/29 03:15:08;;;;;;;1.88;1.75;;;7.30;99.90;;;;;;5060756;28;20220;-71
2021/12/29 03:17:36;;;;;;;1.85;1.63;;;7.30;99.90;;;;;;5047200;28;20190;-71
2021/12/29 03:20:10;;;;;;;2.13;2.00;;;7.30;99.90;;;;;;5036599;28;20209;-71
2021/12/29 03:22:41;;;;;;;1.52;1.35;;;7.30;99.90;;;;;;5065871;28;20199;-71
2021/12/29 03:25:25;;;;;;;1.92;1.73;;;7.30;99.90;;;;;;5048640;28;20311;-71
2021/12/29 03:27:59;;;;;;;2.33;1.90;;;7.30;99.90;;;;;;5049044;28;20216;-72
2021/12/29 03:30:37;;;;;;;2.08;1.85;;;7.30;99.90;;;;;;5063193;28;20742;-71
2021/12/29 03:33:12;;;;;;;2.47;2.08;;;7.30;99.90;;;;;;5050701;28;20268;-71
2021/12/29 03:35:43;;;;;;;7.18;2.35;;;7.30;99.90;;;;;;5050050;28;20217;-71
2021/12/29 03:38:17;;;;;;;2.08;1.88;;;7.30;99.90;;;;;;5048664;28;20201;-72
2021/12/29 03:40:50;;;;;;;1.95;1.80;;;7.30;99.90;;;;;;5034013;28;20231;-71
2021/12/29 03:43:20;;;;;;;3.47;1.65;;;7.30;99.90;;;;;;5043796;28;20234;-72
2021/12/29 03:45:52;;;;;;;2.63;1.83;;;7.30;99.90;;;;;;5054289;28;20215;-72
2021/12/29 03:48:26;;;;;;;2.40;1.65;;;7.30;99.90;;;;;;5069654;28;20608;-72
2021/12/29 03:51:00;;;;;;;2.78;2.30;;;7.30;99.90;;;;;;5063733;28;20238;-71
2021/12/29 03:53:50;;;;;;;1.85;1.75;;;7.30;99.90;;;;;;5068093;28;20279;-72
2021/12/29 03:56:20;;;;;;;1.77;1.65;;;7.30;99.90;;;;;;5068250;28;20601;-71
2021/12/29 03:58:49;;;;;;;2.10;1.90;;;7.30;99.90;;;;;;5070182;28;20272;-72
2021/12/29 04:01:20;;;;;;;2.50;1.95;;;7.30;99.90;;;;;;5067543;28;20239;-72
2021/12/29 04:03:52;;;;;;;1.85;1.75;;;7.30;99.90;;;;;;5064712;28;20328;-72
2021/12/29 04:06:27;;;;;;;2.10;1.90;;;7.30;99.90;;;;;;5069152;28;20215;-72
2021/12/29 04:08:56;;;;;;;2.20;2.00;;;7.30;99.90;;;;;;5065116;28;20198;-72
2021/12/29 04:11:38;;;;;;;2.90;2.58;;;7.30;99.90;;;;;;5081556;28;20346;-71
2021/12/29 04:14:32;;;;;;;1.92;1.60;;;7.30;99.90;;;;;;5065025;28;20243;-72
2021/12/29 04:17:10;;;;;;;2.42;2.22;;;7.30;99.90;;;;;;5063521;28;20254;-71
2021/12/29 04:22:43;;;;;;;2.08;1.88;;;7.30;99.90;;;;;;5075923;28;20218;-72
2021/12/29 04:25:26;;;;;;;2.50;2.10;;;7.30;99.90;;;;;;5063726;28;20219;-70
2021/12/29 04:28:00;;;;;;;2.70;2.22;;;7.30;99.90;;;;;;5069177;28;20212;-71
2021/12/29 04:30:30;;;;;;;2.20;2.00;;;7.30;99.90;;;;;;5072867;28;20221;-71
2021/12/29 04:33:02;;;;;;;1.92;1.83;;;7.30;99.90;;;;;;5075275;28;20196;-71
2021/12/29 04:35:33;;;;;;;2.10;1.98;;;7.30;99.90;;;;;;5069395;28;20236;-72
2021/12/29 04:38:07;;;;;;;2.47;2.08;;;7.30;99.90;;;;;;5058716;28;20212;-71
2021/12/29 04:41:00;;;;;;;2.00;1.80;;;7.30;99.90;;;;;;5069716;28;20231;-71
2021/12/29 04:43:34;;;;;;;2.10;2.00;;;7.30;99.90;;;;;;5068871;28;20193;-72
2021/12/29 04:46:05;;;;;;;2.05;1.70;;;7.30;99.90;;;;;;5053812;28;20229;-71
2021/12/29 04:48:50;;;;;;;1.90;1.77;;;7.30;99.90;;;;;;5084985;28;20208;-72
2021/12/29 04:51:24;;;;;;;2.38;2.00;;;7.30;99.90;;;;;;5063795;28;20221;-70
2021/12/29 04:54:00;;;;;;;2.33;2.13;;;7.30;99.90;;;;;;5067905;28;20232;-71
2021/12/29 04:56:32;;;;;;;2.05;1.85;;;7.30;99.90;;;;;;5049254;28;20266;-72
2021/12/29 04:59:04;;;;;;;2.00;1.90;;;7.30;99.90;;;;;;5062670;28;20269;-72
2021/12/29 05:01:38;;;;;;;2.25;1.90;;;7.30;99.90;;;;;;5057264;28;20390;-72
2021/12/29 05:04:10;;;;;;;2.05;1.85;;;7.30;99.90;;;;;;5073562;28;20647;-73
2021/12/29 05:09:42;;;;;;;3.70;2.63;;;7.30;99.90;;;;;;5065095;28;20302;-72
2021/12/29 05:12:20;;;;;;;2.78;2.20;;;7.30;99.90;;;;;;5065911;28;20212;-71
2021/12/29 05:14:51;;;;;;;2.00;1.80;;;7.30;99.90;;;;;;5066578;28;20210;-72
2021/12/29 05:17:23;;;;;;;2.50;2.10;;;7.30;99.90;;;;;;5050476;28;20258;-72
2021/12/29 05:19:56;;;;;;;2.58;1.95;;;7.30;99.90;;;;;;5068186;28;20193;-72
2021/12/29 05:22:27;;;;;;;2.05;1.50;;;7.30;99.90;;;;;;5067327;28;20321;-72
2021/12/29 05:24:58;;;;;;;1.50;1.40;;;7.40;99.90;;;;;;5065933;28;20279;-71
2021/12/29 05:27:27;;;;;;;2.17;1.98;;;7.30;99.90;;;;;;5067874;28;20214;-72
2021/12/29 05:30:03;;;;;;;2.33;1.50;;;7.30;99.90;;;;;;5059959;28;20231;-72
2021/12/29 05:32:44;;;;;;;4.25;1.80;;;7.30;99.90;;;;;;5055523;28;20241;-72
2021/12/29 05:35:13;;;;;;;3.30;2.38;;;7.30;99.90;;;;;;5047356;28;20230;-72
2021/12/29 05:37:52;;;;;;;2.28;2.03;;;7.30;99.90;;;;;;5060232;28;20208;-72
2021/12/29 05:40:27;;;;;;;4.82;1.52;;;7.30;99.90;;;;;;5034335;28;20235;-72
2021/12/29 05:43:01;;;;;;;1.83;1.73;;;7.30;99.90;;;;;;5045884;28;20196;-71
2021/12/29 05:45:31;;;;;;;2.30;2.10;;;7.40;99.90;;;;;;5044833;28;20608;-71
2021/12/29 05:48:03;;;;;;;2.38;1.80;;;7.40;99.90;;;;;;5050382;28;20231;-72
2021/12/29 05:50:40;;;;;;;1.98;1.70;;;7.40;99.90;;;;;;5049092;28;20805;-71
2021/12/29 05:53:09;;;;;;;2.05;1.85;;;7.40;99.90;;;;;;5053202;28;20279;-72
2021/12/29 05:55:59;;;;;;;2.35;1.88;;;7.30;99.90;;;;;;5058236;28;20227;-72
2021/12/29 05:58:28;;;;;;;2.08;1.88;;;7.30;99.90;;;;;;5048037;28;20213;-72
2021/12/29 06:01:02;;;;;;;2.00;1.90;;;7.30;99.90;;;;;;5042411;28;20315;-72
2021/12/29 06:03:36;;;;;;;1.52;1.40;;;7.30;99.90;;;;;;5044526;28;20659;-71
2021/12/29 06:06:10;;;;;;;2.47;2.10;;;7.30;99.90;;;;;;5061194;28;20212;-70
2021/12/29 06:08:42;;;;;;;2.15;1.85;;;7.30;99.90;;;;;;5071677;28;20287;-72
2021/12/29 06:11:11;;;;;;;1.75;1.60;;;7.40;99.90;;;;;;5036679;28;20296;-71
2021/12/29 06:13:41;;;;;;;3.10;1.70;;;7.40;99.90;;;;;;5049525;28;20736;-71
2021/12/29 06:16:19;;;;;;;1.98;1.42;;;7.40;99.90;;;;;;5059559;28;21052;-72
2021/12/29 06:18:48;;;;;;;1.73;1.63;;;7.40;99.90;;;;;;5064986;28;20263;-72
2021/12/29 06:21:17;;;;;;;2.30;1.75;;;7.30;99.90;;;;;;5056918;28;20267;-72
2021/12/29 06:23:52;;;;;;;1.98;1.73;;;7.40;99.90;;;;;;5048156;28;20269;-71
2021/12/29 06:26:33;;;;;;;2.08;1.67;;;7.40;99.90;;;;;;5062973;28;20217;-71
2021/12/29 06:29:08;;;;;;;1.63;1.50;;;7.30;99.90;;;;;;5066185;28;20218;-72
2021/12/29 06:31:44;;;;;;;1.70;1.60;;;7.30;99.90;;;;;;5063340;28;20230;-72
2021/12/29 06:34:17;;;;;;;1.90;1.70;;;7.30;99.90;;;;;;5066628;28;20323;-72
2021/12/29 06:36:48;;;;;;;1.30;1.20;;;7.40;99.90;;;;;;5066425;28;20224;-72
2021/12/29 06:39:20;;;;;;;2.10;1.90;;;7.40;99.90;;;;;;5067698;28;20269;-72
2021/12/29 06:41:53;;;;;;;2.17;1.77;;;7.30;99.90;;;;;;5070955;28;20191;-72
2021/12/29 06:44:28;;;;;;;1.75;1.65;;;7.30;99.90;;;;;;5055911;28;20212;-71
2021/12/29 06:47:12;;;;;;;3.28;2.20;;;7.40;99.90;;;;;;5062386;28;20232;-72
2021/12/29 06:49:41;;;;;;;2.30;2.10;;;7.40;99.90;;;;;;5061016;28;20213;-71
2021/12/29 06:52:22;;;;;;;1.85;1.75;;;7.40;99.90;;;;;;5057458;28;20265;-72
2021/12/29 06:55:19;;;;;;;;;;;;;;;;;;;;;
2021/12/29 06:57:52;;;;;;;2.00;1.45;;;7.40;99.90;;;;;;5064423;28;20190;-72
2021/12/29 07:00:24;;;;;;;2.25;1.45;;;7.40;99.90;;;;;;5054811;28;20839;-70
2021/12/29 07:02:58;;;;;;;3.35;2.08;;;7.40;99.90;;;;;;5071368;28;20224;-72
2021/12/29 07:05:29;;;;;;;2.00;1.80;;;7.40;99.90;;;;;;5060573;28;20674;-72
2021/12/29 07:07:59;;;;;;;1.55;1.45;;;7.30;99.90;;;;;;5069086;28;20197;-71
2021/12/29 07:10:28;;;;;;;2.13;1.52;;;7.40;99.90;;;;;;5059350;28;20234;-70
2021/12/29 07:13:01;;;;;;;1.52;1.42;;;7.40;99.90;;;;;;5068177;28;20807;-72
2021/12/29 07:15:30;;;;;;;2.90;1.63;;;7.40;99.90;;;;;;5060042;28;20227;-70
2021/12/29 07:18:00;;;;;;;2.10;1.77;;;7.40;99.90;;;;;;5068156;28;20279;-72
2021/12/29 07:20:31;;;;;;;2.20;2.00;;;7.40;99.90;;;;;;5066417;28;20223;-71
2021/12/29 07:23:20;;;;;;;;;;;;;;;;;;;;;
2021/12/29 07:25:52;;;;;;;2.15;1.40;;;7.40;99.90;;;;;;5050478;28;20211;-73
2021/12/29 07:28:26;;;;;;;1.65;1.50;;;7.40;99.90;;;;;;5065543;28;20196;-71
2021/12/29 07:31:10;;;;;;;1.70;1.60;;;7.40;99.90;;;;;;5047470;28;20224;-72
2021/12/29 07:33:48;;;;;;;2.63;1.30;;;7.40;99.90;;;;;;5065758;28;20566;-71
2021/12/29 07:36:23;;;;;;;1.25;1.15;;;7.40;99.90;;;;;;5078803;28;20226;-72
2021/12/29 07:38:52;;;;;;;2.83;1.40;;;7.40;99.90;;;;;;5050636;28;20278;-71
2021/12/29 07:41:26;;;;;;;1.92;1.60;;;7.40;99.90;;;;;;5056708;28;20287;-72
2021/12/29 07:44:04;;;;;;;1.50;1.35;;;7.40;99.90;;;;;;5068464;28;20221;-72
2021/12/29 07:46:46;;;;;;;2.08;1.60;;;7.40;99.90;;;;;;5067610;28;21111;-72
2021/12/29 07:49:27;;;;;;;3.92;1.35;;;7.40;99.90;;;;;;5065911;28;20334;-71
2021/12/29 07:52:02;;;;;;;2.40;1.67;;;7.40;99.90;;;;;;5075297;27;20207;-71
2021/12/29 07:54:34;;;;;;;1.85;1.50;;;7.40;99.90;;;;;;5069777;28;20230;-72
2021/12/29 07:57:03;;;;;;;2.47;1.85;;;7.40;99.90;;;;;;5055412;28;20217;-71
2021/12/29 07:59:31;;;;;;;2.38;1.50;;;7.40;99.90;;;;;;5068934;28;20186;-71
2021/12/29 08:02:00;;;;;;;1.50;1.17;;;7.40;99.90;;;;;;5062466;28;20216;-71
2021/12/29 08:04:31;;;;;;;2.00;1.77;;;7.40;99.90;;;;;;5050085;28;20223;-72
2021/12/29 08:07:01;;;;;;;1.70;1.60;;;7.40;99.90;;;;;;5064448;28;20307;-73
2021/12/29 08:09:45;;;;;;;2.08;1.00;;;7.40;99.90;;;;;;5063621;28;20200;-72
2021/12/29 08:12:15;;;;;;;1.25;1.15;;;7.40;99.90;;;;;;5051232;28;20308;-72
2021/12/29 08:15:15;;;;;;;1.77;1.67;;;7.40;99.90;;;;;;5064240;28;20236;-70
2021/12/29 08:17:51;;;;;;;2.10;1.40;;;7.40;99.90;;;;;;5078226;28;20191;-71
2021/12/29 08:20:29;;;;;;;1.65;1.20;;;7.40;99.90;;;;;;5065415;28;20221;-71
2021/12/29 08:23:17;;;;;;;1.75;1.65;;;7.40;99.90;;;;;;5065627;28;20192;-72
2021/12/29 08:25:48;;;;;;;1.38;1.17;;;7.40;99.90;;;;;;5084500;28;20417;-72
2021/12/29 08:28:24;;;;;;;2.50;1.30;;;7.40;99.90;;;;;;5068997;28;20184;-72
2021/12/29 08:31:16;;;;;;;1.77;1.65;;;7.40;99.90;;;;;;5065001;28;20595;-71
2021/12/29 08:33:50;;;;;;;1.45;1.35;;;7.40;99.90;;;;;;5063206;28;20635;-72
2021/12/29 08:36:23;;;;;;;2.20;1.50;;;7.40;99.90;;;;;;5052374;28;20303;-71
2021/12/29 08:39:08;;;;;;;1.90;1.70;;;7.40;99.90;;;;;;5048459;28;20204;-71
2021/12/29 08:41:41;;;;;;;1.60;1.48;;;7.40;99.90;;;;;;5064885;28;20220;-72
2021/12/29 08:44:22;;;;;;;1.40;1.30;;;7.40;99.90;;;;;;5068752;28;20217;-72
2021/12/29 08:46:54;;;;;;;1.42;1.30;;;7.40;99.90;;;;;;5067644;28;20216;-71
2021/12/29 08:49:23;;;;;;;2.75;1.60;;;7.40;99.90;;;;;;5057863;28;20231;-72
2021/12/29 08:51:56;;;;;;;1.40;1.30;;;7.40;99.90;;;;;;5066797;28;20308;-72
2021/12/29 08:54:28;;;;;;;1.33;1.23;;;7.40;99.90;;;;;;5057931;28;20203;-71
2021/12/29 08:56:59;;;;;;;1.75;1.30;;;7.40;99.90;;;;;;5065230;28;20221;-72
2021/12/29 08:59:33;;;;;;;1.70;1.60;;;7.40;99.90;;;;;;5068141;28;20285;-72
2021/12/29 09:02:02;;;;;;;2.35;1.70;;;7.40;99.90;;;;;;5067210;28;20215;-71
2021/12/29 09:04:31;;;;;;;3.60;1.55;;;7.40;99.90;;;;;;5062287;28;20689;-71
2021/12/29 09:07:12;;;;;;;2.22;1.70;;;7.40;99.90;;;;;;5068469;28;20278;-72
2021/12/29 09:09:47;;;;;;;2.08;1.60;;;7.40;99.90;;;;;;5069333;28;20196;-72
2021/12/29 09:12:33;;;;;;;;;;;;;;;;;;;;;
2021/12/29 09:15:04;;;;;;;1.85;1.70;;;7.40;99.90;;;;;;5066921;28;20212;-70
2021/12/29 09:17:37;;;;;;;1.70;1.55;;;7.40;99.90;;;;;;5067937;28;20327;-70
2021/12/29 09:20:27;;;;;;;1.77;1.67;;;7.40;99.90;;;;;;5047412;28;20261;-72
2021/12/29 09:23:03;;;;;;;2.53;1.80;;;7.40;99.90;;;;;;5064612;28;20566;-73
2021/12/29 09:25:39;;;;;;;2.67;1.90;;;7.40;99.90;;;;;;5036491;28;20273;-69
2021/12/29 09:28:10;;;;;;;1.70;1.60;;;7.40;99.90;;;;;;5064569;28;20876;-72
2021/12/29 09:30:48;;;;;;;1.90;1.45;;;7.40;99.90;;;;;;5048230;28;20778;-73
2021/12/29 09:33:31;;;;;;;2.38;1.67;;;7.40;99.90;;;;;;5046110;28;20208;-72
2021/12/29 09:36:02;;;;;;;1.80;1.70;;;7.40;99.90;;;;;;5062065;28;20238;-71
2021/12/29 09:38:36;;;;;;;1.75;1.58;;;7.40;99.90;;;;;;5067870;28;20278;-71
2021/12/29 09:41:07;;;;;;;1.55;1.45;;;7.40;99.90;;;;;;5068061;28;20313;-72
2021/12/29 09:43:36;;;;;;;1.70;1.40;;;7.40;99.90;;;;;;5069091;28;20215;-71
2021/12/29 09:46:06;;;;;;;1.88;1.55;;;7.40;99.90;;;;;;5051111;28;20220;-71
2021/12/29 09:48:47;;;;;;;1.70;1.38;;;7.40;99.90;;;;;;5071709;28;20189;-72
2021/12/29 09:51:21;;;;;;;1.85;1.70;;;7.40;99.90;;;;;;5077909;28;20214;-72
2021/12/29 09:54:01;;;;;;;1.88;1.45;;;7.40;99.90;;;;;;5071898;28;20255;-72
2021/12/29 09:56:30;;;;;;;2.95;1.45;;;7.40;99.90;;;;;;5063247;28;20218;-71
2021/12/29 09:59:00;;;;;;;1.70;1.50;;;7.40;99.90;;;;;;5067929;28;20198;-72
2021/12/29 10:01:31;;;;;;;1.98;1.50;;;7.40;99.90;;;;;;5075836;28;20810;-72
2021/12/29 10:04:00;;;;;;;1.65;1.52;;;7.40;99.90;;;;;;5049107;28;20216;-72
2021/12/29 10:06:32;;;;;;;2.05;1.67;;;7.40;99.90;;;;;;5065571;28;20792;-72
2021/12/29 10:09:12;;;;;;;1.33;1.00;;;7.40;99.90;;;;;;5066680;28;20245;-71
2021/12/29 10:11:45;;;;;;;2.78;1.85;;;7.40;99.90;;;;;;5062237;28;20223;-71
2021/12/29 10:14:17;;;;;;;1.88;1.65;;;7.50;99.90;;;;;;5053688;28;20218;-71
2021/12/29 10:16:50;;;;;;;1.85;1.20;;;7.40;99.90;;;;;;5065999;28;20679;-72
2021/12/29 10:19:26;;;;;;;1.80;1.60;;;7.40;99.90;;;;;;5067872;28;20195;-70
2021/12/29 10:21:55;;;;;;;1.40;1.30;;;7.50;99.90;;;;;;5062960;28;20254;-71
2021/12/29 10:24:25;;;;;;;1.33;1.08;;;7.40;99.90;;;;;;5067139;28;20215;-71
2021/12/29 10:27:23;;;;;;;2.60;1.27;;;7.50;99.90;;;;;;5065677;28;20324;-72
2021/12/29 10:29:59;;;;;;;1.73;1.35;;;7.50;99.90;;;;;;5058442;28;20201;-71
2021/12/29 10:32:33;;;;;;;1.13;1.00;;;7.50;99.90;;;;;;5046631;28;20691;-72
2021/12/29 10:35:06;;;;;;;2.03;1.58;;;7.40;99.90;;;;;;5038117;28;20548;-71
2021/12/29 10:37:38;;;;;;;3.00;1.50;;;7.50;99.90;;;;;;5042166;28;20205;-72
2021/12/29 10:40:14;;;;;;;1.60;1.30;;;7.50;99.90;;;;;;5033703;28;20205;-70
2021/12/29 10:42:55;;;;;;;3.03;1.30;;;7.50;99.90;;;;;;5055885;28;20183;-71
2021/12/29 10:45:32;;;;;;;1.20;1.02;;;7.60;99.90;;;;;;5038774;28;20227;-70
2021/12/29 10:48:02;;;;;;;3.70;2.17;;;7.60;99.90;;;;;;5032686;28;20230;-65
2021/12/29 10:50:34;;;;;;;3.95;1.88;;;7.60;99.90;;;;;;5044897;28;20224;-65
2021/12/29 10:53:10;;;;;;;3.03;1.73;;;7.70;99.90;;;;;;5047182;28;20626;-65
2021/12/29 10:55:45;;;;;;;5.05;2.20;;;7.70;99.90;;;;;;5061056;28;20925;-66
2021/12/29 10:58:24;;;;;;;4.55;1.80;;;7.80;99.90;;;;;;5041477;28;20185;-66
2021/12/29 11:01:15;;;;;;;8.07;2.75;;;7.70;99.90;;;;;;5052785;28;20212;-66
2021/12/29 11:03:50;;;;;;;3.92;1.60;;;7.70;99.90;;;;;;5045191;28;20750;-67
2021/12/29 11:06:23;;;;;;;2.92;1.83;;;7.70;99.90;;;;;;5047188;28;20234;-66
2021/12/29 11:08:56;;;;;;;2.00;1.77;;;7.70;99.90;;;;;;5045422;28;20189;-66
2021/12/29 11:11:40;;;;;;;4.57;1.90;;;7.70;99.90;;;;;;5049732;28;20316;-67
2021/12/29 11:17:04;;;;;;;2.63;1.55;;;7.70;99.90;;;;;;5046336;28;20220;-66
2021/12/29 11:19:33;;;;;;;3.30;1.60;;;7.60;99.90;;;;;;5050072;28;20226;-66
2021/12/29 11:22:18;;;;;;;3.85;1.73;;;7.60;99.90;;;;;;5067104;28;20218;-66
2021/12/29 11:24:56;;;;;;;7.40;2.40;;;7.60;99.90;;;;;;5070309;28;20309;-66
2021/12/29 11:27:32;;;;;;;4.03;2.58;;;7.70;99.90;;;;;;5059088;28;20214;-65
2021/12/29 11:30:04;;;;;;;3.17;1.67;;;7.70;99.90;;;;;;5058690;28;20194;-66
2021/12/29 11:32:36;;;;;;;4.90;1.90;;;7.70;99.90;;;;;;5040917;28;20259;-67
2021/12/29 11:35:09;;;;;;;1.50;1.40;;;7.70;99.90;;;;;;5050639;28;20245;-68
2021/12/29 11:37:41;;;;;;;2.75;1.50;;;7.70;99.90;;;;;;5050018;28;20566;-65
2021/12/29 11:40:12;;;;;;;2.78;1.42;;;7.60;99.90;;;;;;5051198;28;20197;-66
2021/12/29 11:42:45;;;;;;;4.82;1.55;;;7.60;99.90;;;;;;5045412;28;20199;-67
2021/12/29 11:45:14;;;;;;;2.67;1.75;;;7.60;99.90;;;;;;5060660;28;20219;-66
2021/12/29 11:47:44;;;;;;;3.00;1.48;;;7.60;99.90;;;;;;5047866;28;20184;-67
2021/12/29 11:50:20;;;;;;;4.05;2.00;;;7.60;99.90;;;;;;5058597;28;20226;-66
2021/12/29 11:53:28;;;;;;;1.83;1.58;;;7.60;99.90;;;;;;5068679;28;20209;-66
2021/12/29 11:56:01;;;;;;;2.22;1.27;;;7.60;99.90;;;;;;5056557;28;20227;-66
2021/12/29 11:58:36;;;;;;;1.83;1.45;;;7.60;99.90;;;;;;5050353;28;20189;-65
2021/12/29 12:01:09;;;;;;;9.43;2.65;;;7.60;99.90;;;;;;5046399;28;20310;-66
2021/12/29 12:03:52;;;;;;;2.55;1.73;;;7.70;99.90;;;;;;5058776;28;20241;-66
2021/12/29 12:06:29;;;;;;;3.05;2.05;;;7.70;99.90;;;;;;5061877;28;20294;-65
2021/12/29 12:09:11;;;;;;;3.08;1.70;;;7.70;99.90;;;;;;5060183;28;20206;-66
2021/12/29 12:11:57;;;;;;;1.98;1.27;;;7.70;99.90;;;;;;5068310;28;20217;-66
2021/12/29 12:14:49;;;;;;;2.20;1.88;;;7.70;99.90;;;;;;5060958;28;20209;-66
2021/12/29 12:17:25;;;;;;;3.78;2.17;;;7.60;99.90;;;;;;5066369;28;20312;-67
2021/12/29 12:20:04;;;;;;;2.92;1.83;;;7.60;99.90;;;;;;5068175;28;20192;-66
2021/12/29 12:22:50;;;;;;;3.25;1.80;;;7.60;99.90;;;;;;5081589;28;20272;-66
2021/12/29 12:25:29;;;;;;;3.05;1.85;;;7.60;99.90;;;;;;5057377;28;20282;-66
2021/12/29 12:28:21;;;;;;;2.10;1.90;;;7.60;99.90;;;;;;5016193;28;20224;-66
2021/12/29 12:30:59;;;;;;;3.20;2.03;;;7.60;99.90;;;;;;5021724;28;20220;-66
2021/12/29 12:33:31;;;;;;;1.70;1.50;;;7.60;99.90;;;;;;5033761;28;20472;-66
2021/12/29 12:36:13;;;;;;;2.03;1.83;;;7.60;99.90;;;;;;5023205;28;20218;-66
2021/12/29 12:38:48;;;;;;;2.17;1.33;;;7.60;99.90;;;;;;5030083;28;20913;-67
2021/12/29 12:41:20;;;;;;;3.10;1.65;;;7.60;99.90;;;;;;5033562;28;20222;-66
2021/12/29 12:46:48;;;;;;;4.50;2.55;;;7.60;99.90;;;;;;5030285;28;20226;-66
2021/12/29 12:49:20;;;;;;;2.50;2.10;;;7.60;99.90;;;;;;5045524;28;20192;-67
2021/12/29 12:52:07;;;;;;;4.60;1.95;;;7.60;99.90;;;;;;5039603;28;20222;-66
2021/12/29 12:54:53;;;;;;;2.22;1.55;;;7.60;99.90;;;;;;5026757;28;20211;-66
2021/12/29 12:57:44;;;;;;;1.80;1.60;;;7.60;99.90;;;;;;5039618;28;20225;-66
2021/12/29 13:00:22;;;;;;;2.45;1.80;;;7.60;99.90;;;;;;5022436;28;20659;-66
2021/12/29 13:02:58;;;;;;;2.95;1.75;;;7.60;99.90;;;;;;5027170;28;20564;-66
2021/12/29 13:05:33;;;;;;;2.65;1.60;;;7.60;99.90;;;;;;5029532;28;20245;-67
2021/12/29 13:08:07;;;;;;;3.45;3.25;;;7.60;99.90;;;;;;5020812;28;20190;-67
2021/12/29 13:10:43;;;;;;;2.88;1.90;;;7.60;99.90;;;;;;5023073;28;20248;-67
2021/12/29 13:13:15;;;;;;;2.20;2.00;;;7.60;99.90;;;;;;5032841;28;20202;-65
2021/12/29 13:15:47;;;;;;;1.38;1.27;;;7.60;99.90;;;;;;5024344;28;20308;-66
2021/12/29 13:18:18;;;;;;;2.03;1.70;;;7.60;99.90;;;;;;5026776;28;20286;-66
2021/12/29 13:20:50;;;;;;;1.70;1.47;;;7.60;99.90;;;;;;5027192;28;20267;-66
2021/12/29 13:23:25;;;;;;;1.80;1.70;;;7.60;99.90;;;;;;5026246;28;20894;-67
2021/12/29 13:26:00;;;;;;;1.58;1.48;;;7.60;99.90;;;;;;5031354;28;20279;-66
2021/12/29 13:28:33;;;;;;;3.28;1.50;;;7.60;99.90;;;;;;5031954;28;20281;-65
2021/12/29 13:31:14;;;;;;;2.28;2.00;;;7.60;99.90;;;;;;5035012;28;20218;-66
2021/12/29 13:33:54;;;;;;;1.48;1.38;;;7.60;99.90;;;;;;5048253;28;20226;-66
2021/12/29 13:36:26;;;;;;;2.75;1.52;;;7.60;99.90;;;;;;5047824;28;20220;-66
2021/12/29 13:38:58;;;;;;;1.90;1.70;;;7.60;99.90;;;;;;5058019;28;20198;-67
2021/12/29 13:41:29;;;;;;;2.03;1.80;;;7.60;99.90;;;;;;5080428;28;20247;-67
2021/12/29 13:44:01;;;;;;;2.63;2.30;;;7.60;99.90;;;;;;5061616;28;20206;-66
2021/12/29 13:46:34;;;;;;;1.90;1.52;;;7.60;99.90;;;;;;5044719;28;20367;-66
2021/12/29 13:49:16;;;;;;;1.40;1.30;;;7.60;99.90;;;;;;5040298;28;20201;-66
2021/12/29 13:51:47;;;;;;;2.67;1.70;;;7.60;99.90;;;;;;5056805;28;20293;-66
2021/12/29 13:54:21;;;;;;;1.83;1.65;;;7.60;99.90;;;;;;5058816;28;20201;-67
2021/12/29 13:56:55;;;;;;;2.30;1.65;;;7.60;99.90;;;;;;5042099;28;20224;-66
2021/12/29 13:59:27;;;;;;;1.48;1.38;;;7.60;99.90;;;;;;5015587;28;20189;-67
2021/12/29 14:02:00;;;;;;;1.85;1.55;;;7.60;99.90;;;;;;5043466;28;20205;-67
2021/12/29 14:04:34;;;;;;;1.75;1.45;;;7.60;99.90;;;;;;5025548;28;20220;-67